Portada
METAR-TAF:

METAR-TAF

Aeroports :

Iwo Jima, Japó

latitud: 24-47N, longitud: 141-19E, altitud: 113 m

Observació

L'informe es va fer fa 29 minuts, a les 12:00 UTC
Vent 11 kt del Sud-Oest
Temperatura 27°C
Humitat 89%
Pressió 1013 hPa
Visibilitat 10 km o més
Núvols disperses a una alçada de 1000 ft
Cel ennuvolat a una alçada de 12000 ft
Cel ennuvolat a una alçada de 23000 ft

METAR: RJAW 251200Z 23011KT 9999 SCT010 BKN120 BKN230 27/25 Q1013 RMK 3CU010 5AC120 A2994

Hora: 21:29 (12:29 UTC)


TAF: manca

Observacions i pronòstics meteorològics de més de 4000 aeroports (METAR i TAF).

Les estacions disponibles són els punts grocs i vermells al mapa.

Posi el ratolí al punt desitjat per veure el nom de l'estació.

Feu clic per veure les observacions i els pronòstics meteorològics.

Per canviar el mapa: feu clic els botons verds amb una creu de color negre per apropar; al botó verd amb un guió per allunyar la imatge; o en les fletxes verdes per a mapes adjacents.


METAR-TAF: